createdAt,value
2022-10-17T00:01:14.875Z,4.97
2022-10-17T00:04:20.491Z,7.00
2022-10-17T00:07:26.902Z,7.22
2022-10-17T00:10:33.324Z,9.65
2022-10-17T00:13:39.492Z,9.40
2022-10-17T00:16:45.653Z,15.38
2022-10-17T00:19:52.019Z,21.75
2022-10-17T00:22:58.491Z,18.42
2022-10-17T00:26:07.739Z,22.30
2022-10-17T00:29:14.301Z,28.17
2022-10-17T00:32:21.390Z,27.58
2022-10-17T00:35:27.658Z,27.70
2022-10-17T00:38:34.034Z,29.35
2022-10-17T00:41:40.293Z,28.95
2022-10-17T00:44:49.032Z,29.05
2022-10-17T00:48:02.961Z,27.38
2022-10-17T00:51:09.758Z,27.15
2022-10-17T00:54:18.680Z,26.00
2022-10-17T00:57:25.357Z,29.55
2022-10-17T01:00:31.835Z,28.85
2022-10-17T01:03:38.601Z,29.13
2022-10-17T01:06:44.377Z,30.60
2022-10-17T01:09:53.737Z,30.50
2022-10-17T01:13:34.272Z,28.23
2022-10-17T01:17:05.600Z,22.98
2022-10-17T01:20:56.667Z,17.55
2022-10-17T01:24:28.996Z,23.65
2022-10-17T01:27:43.454Z,23.65
2022-10-17T01:31:36.180Z,21.70
2022-10-17T01:35:23.613Z,18.23
2022-10-17T01:41:56.363Z,22.65
2022-10-17T01:45:05.964Z,24.75
2022-10-17T01:48:19.127Z,18.52
2022-10-17T01:51:31.796Z,22.50
2022-10-17T01:54:54.387Z,23.40
2022-10-17T01:58:14.960Z,23.48
2022-10-17T02:01:23.743Z,15.63
2022-10-17T02:04:28.451Z,12.90
2022-10-17T02:07:32.011Z,10.95
2022-10-17T02:10:57.051Z,8.80
2022-10-17T02:14:05.871Z,11.02
2022-10-17T02:17:22.217Z,11.65
2022-10-17T02:20:50.242Z,9.98
2022-10-17T02:24:02.925Z,10.50
2022-10-17T02:27:24.445Z,11.00
2022-10-17T02:31:01.929Z,11.95
2022-10-17T02:34:10.411Z,10.35
2022-10-17T02:37:18.269Z,8.80
2022-10-17T02:40:25.046Z,4.97
2022-10-17T02:43:29.884Z,7.00
2022-10-17T02:46:36.134Z,7.53
2022-10-17T02:49:45.084Z,8.27
2022-10-17T02:52:57.540Z,6.82
2022-10-17T02:56:05.874Z,4.80
2022-10-17T02:59:13.351Z,5.32
2022-10-17T03:02:17.737Z,4.50
2022-10-17T03:05:23.294Z,4.55
2022-10-17T03:08:26.855Z,3.10
2022-10-17T03:11:32.437Z,4.22
2022-10-17T03:14:36.526Z,4.35
2022-10-17T03:17:41.168Z,3.63
2022-10-17T03:20:45.372Z,4.28
2022-10-17T03:23:49.599Z,3.17
2022-10-17T03:30:15.090Z,3.53
2022-10-17T03:33:19.804Z,4.65
2022-10-17T03:39:44.151Z,3.95
2022-10-17T03:42:48.119Z,3.97
2022-10-17T03:45:51.245Z,4.93
2022-10-17T03:48:55.114Z,5.18
2022-10-17T03:52:01.132Z,3.72
2022-10-17T03:55:05.897Z,7.50
2022-10-17T03:58:08.954Z,6.32
2022-10-17T04:01:15.787Z,6.28
2022-10-17T04:40:14.043Z,4.95
2022-10-17T04:43:17.599Z,4.05
2022-10-17T04:46:21.787Z,4.35
2022-10-17T04:49:25.625Z,4.80
2022-10-17T04:52:39.949Z,4.40
2022-10-17T04:55:45.147Z,3.20
2022-10-17T04:58:50.648Z,3.30
2022-10-17T05:01:53.844Z,3.05
2022-10-17T05:04:57.428Z,2.30
2022-10-17T05:08:00.365Z,1.65
2022-10-17T05:11:17.522Z,1.88
2022-10-17T05:14:21.153Z,3.63
2022-10-17T05:17:26.059Z,5.00
2022-10-17T05:20:29.192Z,3.88
2022-10-17T05:23:32.850Z,3.72
2022-10-17T05:26:36.257Z,2.72
2022-10-17T05:29:40.668Z,1.60
2022-10-17T05:33:05.915Z,2.30
2022-10-17T05:36:10.622Z,2.47
2022-10-17T05:39:20.126Z,2.40
2022-10-17T05:42:25.944Z,2.50
2022-10-17T05:45:29.656Z,2.17
2022-10-17T05:48:33.676Z,1.88
2022-10-17T05:51:37.523Z,3.22
2022-10-17T05:54:41.199Z,1.40
2022-10-17T05:57:45.159Z,1.20
2022-10-17T06:00:53.131Z,1.13
2022-10-17T06:03:56.908Z,1.00
2022-10-17T06:07:01.430Z,1.10
2022-10-17T06:10:05.844Z,1.50
2022-10-17T06:13:10.128Z,1.75
2022-10-17T06:16:13.824Z,1.20
2022-10-17T06:19:17.556Z,2.25
2022-10-17T06:22:22.785Z,1.50
2022-10-17T06:25:26.493Z,1.60
2022-10-17T06:28:31.014Z,2.42
2022-10-17T06:31:35.192Z,1.80
2022-10-17T06:34:38.722Z,1.80
2022-10-17T06:37:42.758Z,1.77
2022-10-17T06:40:45.813Z,1.52
2022-10-17T06:43:49.380Z,1.15
2022-10-17T06:47:12.703Z,1.30
2022-10-17T06:50:19.978Z,1.60
2022-10-17T06:53:47.759Z,1.48
2022-10-17T06:57:09.875Z,1.35
2022-10-17T07:00:23.869Z,1.70
2022-10-17T07:03:30.938Z,1.95
2022-10-17T07:06:35.274Z,2.05
2022-10-17T07:09:45.563Z,1.60
2022-10-17T07:12:50.832Z,1.70
2022-10-17T07:19:07.854Z,2.00
2022-10-17T07:22:14.078Z,1.67
2022-10-17T07:25:22.368Z,1.42
2022-10-17T07:28:29.679Z,1.65
2022-10-17T07:31:36.754Z,1.88
2022-10-17T07:34:39.807Z,2.03
2022-10-17T07:37:44.810Z,1.80
2022-10-17T07:41:02.012Z,1.70
2022-10-17T07:44:05.357Z,1.67
2022-10-17T07:47:12.925Z,1.73
2022-10-17T07:50:16.759Z,2.00
2022-10-17T07:53:20.102Z,2.55
2022-10-17T07:56:25.278Z,1.50
2022-10-17T07:59:28.231Z,1.33
2022-10-17T08:02:31.406Z,1.80
2022-10-17T08:05:35.661Z,1.88
2022-10-17T08:08:38.648Z,2.38
2022-10-17T08:11:44.400Z,2.80
2022-10-17T08:14:48.698Z,3.25
2022-10-17T08:17:51.701Z,2.97
2022-10-17T08:20:57.984Z,3.88
2022-10-17T08:24:03.509Z,3.72
2022-10-17T08:27:11.953Z,3.13
2022-10-17T08:30:16.398Z,2.60
2022-10-17T08:33:19.860Z,2.40
2022-10-17T08:36:23.179Z,2.40
2022-10-17T08:39:26.236Z,2.95
2022-10-17T08:42:47.132Z,2.95
2022-10-17T08:46:01.046Z,2.95
2022-10-17T08:49:15.812Z,2.80
2022-10-17T08:52:23.890Z,3.65
2022-10-17T08:55:34.448Z,4.00
2022-10-17T08:58:38.167Z,4.25
2022-10-17T09:01:51.153Z,3.05
2022-10-17T09:05:16.917Z,3.30
2022-10-17T09:08:42.785Z,2.95
2022-10-17T09:11:55.739Z,2.63
2022-10-17T09:15:17.969Z,4.53
2022-10-17T09:18:45.705Z,5.10
2022-10-17T09:21:55.267Z,5.53
2022-10-17T09:25:07.676Z,5.55
2022-10-17T09:28:11.748Z,4.68
2022-10-17T09:31:27.358Z,4.78
2022-10-17T09:34:33.770Z,3.85
2022-10-17T09:37:37.488Z,3.50
2022-10-17T09:40:41.408Z,4.05
2022-10-17T09:43:46.478Z,3.30
2022-10-17T09:47:18.905Z,3.22
2022-10-17T09:50:27.836Z,2.65
2022-10-17T09:53:37.706Z,3.03
2022-10-17T09:57:06.100Z,2.65
2022-10-17T10:00:26.044Z,3.42
2022-10-17T10:03:30.751Z,2.92
2022-10-17T10:06:34.254Z,2.53
2022-10-17T10:09:40.274Z,2.80
2022-10-17T10:13:02.819Z,2.80
2022-10-17T10:16:33.186Z,2.70
2022-10-17T10:19:39.610Z,3.40
2022-10-17T10:22:43.717Z,3.47
2022-10-17T10:25:57.345Z,2.45
2022-10-17T10:29:04.091Z,3.08
2022-10-17T10:32:30.749Z,2.50
2022-10-17T10:35:37.774Z,3.63
2022-10-17T10:38:43.376Z,2.92
2022-10-17T10:41:49.098Z,3.50
2022-10-17T10:44:55.090Z,4.63
2022-10-17T10:48:14.574Z,5.20
2022-10-17T10:51:22.490Z,4.68
2022-10-17T10:54:36.185Z,5.15
2022-10-17T10:57:41.284Z,4.78
2022-10-17T11:00:45.261Z,4.28
2022-10-17T11:04:27.343Z,4.60
2022-10-17T11:07:49.697Z,3.78
2022-10-17T11:11:14.833Z,2.72
2022-10-17T11:14:43.354Z,4.85
2022-10-17T11:17:58.026Z,5.53
2022-10-17T11:21:25.132Z,3.80
2022-10-17T11:27:35.887Z,3.50
2022-10-17T11:30:48.574Z,4.75
2022-10-17T11:34:20.696Z,6.40
2022-10-17T11:37:28.763Z,4.15
2022-10-17T11:40:37.519Z,7.45
2022-10-17T11:43:51.536Z,9.60
2022-10-17T11:47:37.370Z,6.82
2022-10-17T11:54:25.225Z,8.43
2022-10-17T11:57:47.866Z,6.20
2022-10-17T12:01:03.852Z,4.35
2022-10-17T12:04:22.841Z,6.50
2022-10-17T12:07:46.713Z,4.85
2022-10-17T12:11:08.042Z,4.47
2022-10-17T12:14:36.638Z,3.45
2022-10-17T12:17:55.102Z,6.53
2022-10-17T12:21:01.469Z,5.40
2022-10-17T12:24:05.753Z,4.88
2022-10-17T12:27:33.922Z,6.95
2022-10-17T12:30:38.100Z,5.55
2022-10-17T12:33:59.474Z,7.35
2022-10-17T12:37:03.662Z,6.70
2022-10-17T12:40:37.560Z,8.52
2022-10-17T12:43:55.823Z,8.88
2022-10-17T12:47:31.353Z,6.95
2022-10-17T12:54:37.983Z,5.93
2022-10-17T12:57:52.806Z,6.15
2022-10-17T13:01:22.577Z,5.18
2022-10-17T13:04:23.795Z,6.80
2022-10-17T13:07:27.302Z,5.80
2022-10-17T13:10:35.659Z,5.28
2022-10-17T13:13:45.756Z,11.45
2022-10-17T13:16:56.500Z,16.02
2022-10-17T13:20:00.539Z,7.90
2022-10-17T13:23:05.147Z,7.10
2022-10-17T13:26:11.360Z,10.25
2022-10-17T13:29:18.088Z,22.33
2022-10-17T13:32:21.964Z,15.85
2022-10-17T13:38:58.639Z,23.38
2022-10-17T13:42:03.786Z,20.70
2022-10-17T13:45:18.960Z,18.40
2022-10-17T13:48:28.762Z,14.73
2022-10-17T13:51:32.714Z,13.55
2022-10-17T13:54:42.624Z,13.55
2022-10-17T13:57:46.029Z,15.10
2022-10-17T14:00:54.119Z,15.70
2022-10-17T14:04:08.321Z,14.20
2022-10-17T14:07:46.342Z,15.80
2022-10-17T14:10:59.346Z,12.82
2022-10-17T14:14:06.612Z,10.90
2022-10-17T14:17:27.713Z,11.63
2022-10-17T14:21:29.191Z,10.25
2022-10-17T14:24:28.552Z,8.93
2022-10-17T14:27:36.380Z,9.15
2022-10-17T14:30:57.281Z,11.88
2022-10-17T14:34:07.500Z,10.52
2022-10-17T14:37:36.697Z,14.65
2022-10-17T14:41:09.606Z,21.90
2022-10-17T14:44:29.678Z,12.73
2022-10-17T14:47:43.605Z,11.70
2022-10-17T14:51:11.300Z,17.25
2022-10-17T14:54:19.094Z,25.00
2022-10-17T14:57:37.450Z,23.00
2022-10-17T15:00:48.114Z,17.70
2022-10-17T15:03:58.171Z,13.52
2022-10-17T15:07:09.268Z,22.90
2022-10-17T15:10:45.225Z,23.80
2022-10-17T15:13:52.228Z,18.08
2022-10-17T15:17:02.927Z,16.42
2022-10-17T15:20:19.271Z,13.50
2022-10-17T15:23:25.315Z,17.13
2022-10-17T15:26:43.067Z,17.92
2022-10-17T15:29:48.371Z,18.50
2022-10-17T15:32:57.148Z,16.45
2022-10-17T15:36:05.775Z,13.48
2022-10-17T15:39:15.216Z,11.77
2022-10-17T15:42:25.368Z,12.20
2022-10-17T15:45:35.830Z,12.93
2022-10-17T15:48:46.501Z,13.00
2022-10-17T15:51:55.838Z,13.10
2022-10-17T15:55:06.101Z,13.68
2022-10-17T15:58:19.738Z,13.52
2022-10-17T16:01:31.032Z,13.57
2022-10-17T16:04:39.866Z,13.50
2022-10-17T16:07:49.091Z,13.18
2022-10-17T16:10:56.490Z,12.27
2022-10-17T16:14:08.288Z,12.05
2022-10-17T16:17:20.491Z,11.18
2022-10-17T16:20:29.826Z,9.90
2022-10-17T16:23:38.103Z,10.68
2022-10-17T16:26:45.835Z,11.75
2022-10-17T16:29:53.521Z,10.65
2022-10-17T16:33:00.332Z,18.10
2022-10-17T16:36:09.381Z,34.13
2022-10-17T16:39:16.764Z,32.00
2022-10-17T16:42:25.680Z,33.67
2022-10-17T16:45:35.286Z,47.10
2022-10-17T16:48:45.589Z,35.00
2022-10-17T16:51:55.132Z,53.05
2022-10-17T16:55:04.469Z,50.75
2022-10-17T16:58:16.569Z,45.33
2022-10-17T17:01:29.615Z,43.58
2022-10-17T17:04:39.863Z,33.38
2022-10-17T17:07:50.839Z,36.67
2022-10-17T17:11:00.679Z,31.25
2022-10-17T17:14:09.210Z,26.48
2022-10-17T17:17:30.466Z,24.63
2022-10-17T17:20:49.595Z,23.80
2022-10-17T17:24:01.904Z,21.90
2022-10-17T17:27:13.633Z,20.90
2022-10-17T17:30:23.851Z,28.27
2022-10-17T17:33:32.571Z,46.75
2022-10-17T17:36:44.141Z,35.83
2022-10-17T17:39:53.944Z,30.63
2022-10-17T17:43:04.038Z,33.47
2022-10-17T17:46:12.602Z,29.63
2022-10-17T17:49:21.019Z,23.85
2022-10-17T17:52:29.438Z,20.83
2022-10-17T17:58:51.383Z,17.30
2022-10-17T18:01:59.933Z,20.95
2022-10-17T18:05:07.169Z,19.33
2022-10-17T18:08:14.788Z,14.20
2022-10-17T18:11:22.306Z,15.73
2022-10-17T18:17:36.039Z,13.90
2022-10-17T18:20:46.931Z,17.10
2022-10-17T18:23:54.420Z,21.63
2022-10-17T18:27:02.646Z,21.40
2022-10-17T18:30:12.703Z,24.67
2022-10-17T18:33:21.630Z,28.85
2022-10-17T18:36:29.027Z,26.48
2022-10-17T18:42:46.164Z,21.92
2022-10-17T18:45:54.785Z,17.63
2022-10-17T18:49:02.596Z,14.30
2022-10-17T18:58:27.132Z,14.30
2022-10-17T19:01:34.983Z,10.65
2022-10-17T19:04:43.616Z,10.43
2022-10-17T19:07:52.890Z,18.15
2022-10-17T19:11:07.337Z,20.15
2022-10-17T19:14:17.188Z,14.73
2022-10-17T19:17:22.225Z,13.95
2022-10-17T19:20:27.163Z,14.82
2022-10-17T19:23:31.345Z,16.63
2022-10-17T19:26:37.809Z,17.15
2022-10-17T19:29:44.183Z,18.27
2022-10-17T19:32:49.780Z,17.75
2022-10-17T19:35:59.243Z,15.27
2022-10-17T19:39:06.997Z,15.65
2022-10-17T19:42:10.585Z,15.82
2022-10-17T19:45:14.507Z,13.27
2022-10-17T19:48:18.453Z,14.73
2022-10-17T19:51:27.073Z,14.20
2022-10-17T19:54:30.824Z,14.43
2022-10-17T19:57:36.829Z,13.98
2022-10-17T20:00:50.881Z,14.88
2022-10-17T20:03:55.806Z,30.02
2022-10-17T20:07:01.171Z,32.55
2022-10-17T20:10:07.006Z,36.28
2022-10-17T20:13:11.672Z,34.67
2022-10-17T20:16:22.112Z,29.58
2022-10-17T20:19:26.391Z,31.70
2022-10-17T20:22:30.484Z,24.50
2022-10-17T20:25:35.272Z,18.35
2022-10-17T20:28:39.024Z,17.95
2022-10-17T20:31:45.248Z,17.25
2022-10-17T20:34:49.236Z,16.42
2022-10-17T20:37:54.508Z,20.38
2022-10-17T20:41:03.175Z,24.27
2022-10-17T20:44:08.187Z,18.10
2022-10-17T20:47:21.073Z,18.55
2022-10-17T20:50:38.755Z,16.45
2022-10-17T20:53:43.028Z,17.70
2022-10-17T20:56:46.560Z,17.17
2022-10-17T20:59:49.646Z,20.98
2022-10-17T21:05:58.284Z,30.60
2022-10-17T21:09:01.767Z,26.88
2022-10-17T21:12:06.505Z,33.40
2022-10-17T21:15:10.333Z,28.35
2022-10-17T21:18:14.027Z,23.60
2022-10-17T21:21:28.612Z,21.15
2022-10-17T21:24:32.984Z,21.90
2022-10-17T21:27:37.557Z,16.70
2022-10-17T21:30:41.141Z,20.63
2022-10-17T21:33:49.789Z,20.38
2022-10-17T21:36:54.120Z,17.98
2022-10-17T21:39:57.669Z,16.40
2022-10-17T21:43:01.293Z,17.58
2022-10-17T21:46:14.417Z,16.85
2022-10-17T21:49:21.605Z,17.98
2022-10-17T21:52:25.746Z,15.95
2022-10-17T21:55:30.614Z,14.57
2022-10-17T21:58:34.710Z,16.90
2022-10-17T22:01:41.515Z,16.92
2022-10-17T22:04:45.051Z,15.60
2022-10-17T22:07:48.824Z,16.63
2022-10-17T22:10:52.616Z,14.82
2022-10-17T22:14:01.305Z,16.15
2022-10-17T22:17:05.334Z,15.35
2022-10-17T22:20:10.719Z,14.40
2022-10-17T22:23:15.188Z,19.25
2022-10-17T22:26:18.914Z,16.58
2022-10-17T22:29:23.029Z,15.52
2022-10-17T22:32:27.764Z,16.67
2022-10-17T22:35:32.287Z,17.08
2022-10-17T22:38:37.058Z,18.20
2022-10-17T22:41:41.040Z,17.40
2022-10-17T22:44:45.070Z,14.48
2022-10-17T22:54:29.918Z,14.25
2022-10-17T22:57:33.487Z,13.88
2022-10-17T23:00:46.329Z,15.88
2022-10-17T23:07:36.514Z,7.88
2022-10-17T23:17:28.591Z,8.82
2022-10-17T23:20:35.780Z,11.15
2022-10-17T23:26:59.777Z,11.77
2022-10-17T23:33:29.510Z,12.80
2022-10-17T23:36:34.667Z,13.57
2022-10-17T23:39:39.092Z,13.27
2022-10-17T23:42:43.857Z,12.18
2022-10-17T23:45:48.916Z,14.23
2022-10-17T23:48:59.528Z,14.68
2022-10-17T23:52:17.085Z,15.38
2022-10-17T23:59:05.013Z,13.90
